Time;durP1;ratioP1;P1;durP2;ratioP2;P2;SDS_P1;SDS_P2;PMS_P1;PMS_P2;Temp;Humidity;BMP_temperature;BMP_pressure;BME280_temperature;BME280_humidity;BME280_pressure;Samples;Min_cycle;Max_cycle;Signal;HPM_P1;HPM_P2
2022/02/13 00:00:53;;;;;;;27.63;11.38;;;;;;;1.93;90.25;101865.03;5014495;28;20138;-72
2022/02/13 00:03:23;;;;;;;24.38;10.77;;;;;;;1.98;90.41;101859.00;5015411;28;20165;-73
2022/02/13 00:05:51;;;;;;;26.17;10.20;;;;;;;2.00;90.75;101849.38;5011929;28;20083;-72
2022/02/13 00:08:19;;;;;;;26.33;11.95;;;;;;;2.04;90.81;101852.97;5017144;28;20653;-73
2022/02/13 00:11:07;;;;;;;30.38;11.15;;;;;;;1.91;91.14;101843.94;5015704;28;20588;-72
2022/02/13 00:13:36;;;;;;;22.55;11.00;;;;;;;1.86;91.84;101843.84;5017567;28;20119;-73
2022/02/13 00:16:05;;;;;;;20.40;9.38;;;;;;;1.91;92.55;101845.69;5013366;28;20453;-73
2022/02/13 00:18:33;;;;;;;28.88;10.73;;;;;;;1.85;92.55;101838.56;5018354;28;20088;-73
2022/02/13 00:21:01;;;;;;;24.95;10.52;;;;;;;1.93;92.12;101828.19;5015217;28;20151;-73
2022/02/13 00:23:29;;;;;;;24.52;12.40;;;;;;;1.84;92.79;101819.25;5015955;28;20049;-73
2022/02/13 00:25:57;;;;;;;23.70;10.07;;;;;;;1.82;93.20;101807.81;5016778;28;20753;-73
2022/02/13 00:28:26;;;;;;;27.67;10.73;;;;;;;1.82;93.63;101806.91;5015171;28;20103;-73
2022/02/13 00:30:56;;;;;;;24.80;11.35;;;;;;;1.80;94.12;101803.34;5016677;28;20128;-73
2022/02/13 00:33:26;;;;;;;21.70;10.27;;;;;;;1.81;93.75;101803.41;5014696;28;20566;-73
2022/02/13 00:35:54;;;;;;;24.80;11.73;;;;;;;1.86;93.88;101788.56;5015983;28;20128;-72
2022/02/13 00:38:22;;;;;;;28.33;11.70;;;;;;;1.82;93.88;101777.94;5015163;28;20057;-74
2022/02/13 00:40:50;;;;;;;26.17;10.70;;;;;;;1.83;94.48;101759.56;5014291;28;20068;-72
2022/02/13 00:43:17;;;;;;;25.08;10.07;;;;;;;1.84;93.93;101763.97;5013503;28;20222;-73
2022/02/13 00:45:46;;;;;;;25.48;10.43;;;;;;;1.81;94.06;101756.03;5018318;28;20131;-73
2022/02/13 00:48:15;;;;;;;17.50;8.75;;;;;;;1.85;94.71;101760.47;5014593;28;20146;-73
2022/02/13 00:50:45;;;;;;;26.27;10.75;;;;;;;1.91;94.39;101750.91;5014587;28;20053;-73
2022/02/13 00:53:14;;;;;;;25.13;9.93;;;;;;;1.90;93.96;101757.06;5012636;28;20053;-74
2022/02/13 00:55:42;;;;;;;30.13;10.98;;;;;;;1.86;94.28;101750.84;5014205;28;20109;-72
2022/02/13 00:58:10;;;;;;;21.13;9.82;;;;;;;1.96;93.68;101749.25;5014125;28;20068;-73
2022/02/13 01:00:38;;;;;;;24.83;10.55;;;;;;;1.97;93.67;101754.53;5014651;28;20136;-73
2022/02/13 01:03:07;;;;;;;23.17;10.55;;;;;;;1.92;94.00;101748.31;5015079;28;20440;-73
2022/02/13 01:05:36;;;;;;;24.02;10.85;;;;;;;1.91;94.05;101751.81;5015287;28;20707;-73
2022/02/13 01:08:05;;;;;;;19.63;10.02;;;;;;;1.94;94.00;101743.97;5012115;28;20045;-73
2022/02/13 01:10:33;;;;;;;23.20;10.07;;;;;;;1.96;93.57;101736.09;5016584;28;20450;-73
2022/02/13 01:13:01;;;;;;;23.38;10.90;;;;;;;2.00;93.33;101724.78;5012961;28;20050;-73
2022/02/13 01:15:29;;;;;;;21.02;10.40;;;;;;;1.97;93.54;101724.72;5015684;28;20088;-73
2022/02/13 01:17:57;;;;;;;24.75;10.57;;;;;;;1.94;93.13;101714.13;5015572;28;20060;-73
2022/02/13 01:20:28;;;;;;;23.98;10.77;;;;;;;1.96;93.08;101708.03;5015004;28;20057;-73
2022/02/13 01:22:58;;;;;;;26.70;11.30;;;;;;;1.96;93.36;101692.25;5014961;28;20141;-75
2022/02/13 01:25:26;;;;;;;22.48;10.68;;;;;;;1.92;93.68;101698.28;5011376;28;20079;-75
2022/02/13 01:27:54;;;;;;;21.30;10.25;;;;;;;1.93;93.30;101715.88;5012503;28;20384;-73
2022/02/13 01:30:22;;;;;;;23.42;10.73;;;;;;;1.96;92.92;101713.31;5011868;28;20121;-73
2022/02/13 01:32:50;;;;;;;22.95;11.02;;;;;;;1.97;92.83;101712.41;5013670;28;20091;-73
2022/02/13 01:35:18;;;;;;;26.00;10.82;;;;;;;1.98;92.55;101716.84;5012406;28;20141;-73
2022/02/13 01:37:46;;;;;;;21.73;10.35;;;;;;;1.89;93.08;101721.97;5014945;28;20048;-73
2022/02/13 01:40:16;;;;;;;22.23;10.15;;;;;;;1.83;93.17;101716.56;5011154;28;20057;-73
2022/02/13 01:42:44;;;;;;;23.48;11.07;;;;;;;1.81;93.35;101713.03;5012152;28;20069;-73
2022/02/13 01:45:12;;;;;;;21.27;10.07;;;;;;;1.77;93.26;101708.56;5014255;28;20049;-73
2022/02/13 01:47:41;;;;;;;19.08;9.13;;;;;;;1.80;93.24;101701.59;5012960;28;20075;-74
2022/02/13 01:50:11;;;;;;;23.90;10.15;;;;;;;1.81;92.65;101690.22;5014446;28;20076;-73
2022/02/13 01:52:42;;;;;;;21.45;9.60;;;;;;;1.74;92.92;101682.19;5012753;28;20083;-73
2022/02/13 01:55:10;;;;;;;23.65;9.50;;;;;;;1.80;92.64;101687.56;5018714;28;20110;-73
2022/02/13 01:57:40;;;;;;;19.80;9.45;;;;;;;1.70;92.61;101690.88;5014090;28;20091;-73
2022/02/13 02:00:09;;;;;;;23.52;9.80;;;;;;;1.61;93.25;101681.97;5015481;28;20045;-73
2022/02/13 02:02:36;;;;;;;22.75;10.27;;;;;;;1.62;93.13;101683.75;5015175;28;20672;-73
2022/02/13 02:05:05;;;;;;;25.30;11.63;;;;;;;1.70;93.12;101680.38;5015356;28;20152;-74
2022/02/13 02:07:33;;;;;;;20.30;10.38;;;;;;;1.61;92.54;101679.34;5013825;28;20159;-74
2022/02/13 02:10:01;;;;;;;25.80;10.85;;;;;;;1.65;92.86;101675.91;5016392;28;20123;-74
2022/02/13 02:12:29;;;;;;;21.40;9.60;;;;;;;1.64;92.94;101676.78;5015311;28;20537;-73
2022/02/13 02:14:58;;;;;;;22.05;9.18;;;;;;;1.63;92.65;101663.59;5013791;28;20446;-71
2022/02/13 02:17:26;;;;;;;20.42;9.50;;;;;;;1.62;93.06;101667.09;5014208;28;20037;-73
2022/02/13 02:19:56;;;;;;;24.90;11.23;;;;;;;1.57;92.88;101659.09;5012472;28;20049;-72
2022/02/13 02:22:24;;;;;;;19.83;9.77;;;;;;;1.52;93.27;101644.97;5016208;28;20056;-72
2022/02/13 02:24:53;;;;;;;19.50;9.68;;;;;;;1.52;93.63;101636.22;5012941;28;20194;-72
2022/02/13 02:27:21;;;;;;;23.42;9.95;;;;;;;1.49;93.80;101634.41;5016705;28;20042;-74
2022/02/13 02:29:49;;;;;;;21.85;9.60;;;;;;;1.55;93.47;101633.63;5010755;28;20541;-73
2022/02/13 02:32:19;;;;;;;25.15;9.80;;;;;;;1.40;93.86;101619.34;5011059;28;20050;-74
2022/02/13 02:34:47;;;;;;;24.30;10.27;;;;;;;1.46;93.78;101622.09;5015578;28;20163;-73
2022/02/13 02:37:15;;;;;;;18.50;10.30;;;;;;;1.48;94.30;101617.75;5013650;28;20086;-74
2022/02/13 02:39:43;;;;;;;22.17;9.90;;;;;;;1.44;93.41;101618.53;5014502;28;20160;-74
2022/02/13 02:42:13;;;;;;;23.50;9.77;;;;;;;1.42;93.98;101617.63;5014530;28;20053;-74
2022/02/13 02:44:42;;;;;;;20.65;9.82;;;;;;;1.45;93.50;101607.16;5012217;28;20084;-75
2022/02/13 02:47:10;;;;;;;22.27;9.65;;;;;;;1.47;93.32;101610.69;5011133;28;20132;-74
2022/02/13 02:49:38;;;;;;;19.17;8.75;;;;;;;1.42;93.77;101601.84;5012724;28;20050;-74
2022/02/13 02:52:06;;;;;;;22.75;10.60;;;;;;;1.42;93.42;101600.97;5012419;28;20077;-74
2022/02/13 02:54:34;;;;;;;21.75;10.30;;;;;;;1.40;94.00;101590.41;5014044;28;20140;-73
2022/02/13 02:57:03;;;;;;;23.08;9.30;;;;;;;1.42;94.04;101585.19;5013091;28;20516;-74
2022/02/13 02:59:32;;;;;;;25.08;9.80;;;;;;;1.40;93.74;101576.38;5012708;28;20065;-73
2022/02/13 03:02:00;;;;;;;20.10;9.90;;;;;;;1.40;93.83;101573.75;5010877;28;20057;-73
2022/02/13 03:04:29;;;;;;;22.42;9.65;;;;;;;1.36;93.89;101572.78;5013536;28;20075;-73
2022/02/13 03:06:57;;;;;;;24.92;10.10;;;;;;;1.35;94.50;101557.00;5015342;28;20054;-72
2022/02/13 03:09:25;;;;;;;22.90;9.98;;;;;;;1.42;94.56;101565.03;5016458;28;20303;-72
2022/02/13 03:11:53;;;;;;;27.35;11.45;;;;;;;1.42;93.73;101553.63;5015314;28;20128;-73
2022/02/13 03:14:21;;;;;;;21.05;10.50;;;;;;;1.45;93.53;101551.94;5016919;28;20430;-73
2022/02/13 03:16:50;;;;;;;21.40;9.18;;;;;;;1.44;93.98;101538.75;5017031;28;20548;-72
2022/02/13 03:19:18;;;;;;;25.05;10.63;;;;;;;1.33;94.32;101540.28;5016502;28;20164;-74
2022/02/13 03:21:46;;;;;;;18.38;9.32;;;;;;;1.33;94.36;101530.69;5016115;28;20176;-73
2022/02/13 03:24:14;;;;;;;17.08;8.38;;;;;;;1.34;94.34;101535.06;5020044;28;20060;-72
2022/02/13 03:26:41;;;;;;;23.08;10.57;;;;;;;1.29;94.59;101534.09;5012504;28;20324;-72
2022/02/13 03:29:11;;;;;;;18.83;9.80;;;;;;;1.30;94.69;101539.41;5014903;28;20061;-72
2022/02/13 03:31:38;;;;;;;19.23;9.60;;;;;;;1.31;94.58;101529.75;5017322;28;20118;-74
2022/02/13 03:34:08;;;;;;;18.52;9.20;;;;;;;1.29;94.72;101516.59;5016419;28;20060;-72
2022/02/13 03:36:36;;;;;;;22.52;9.77;;;;;;;1.26;95.20;101508.66;5014077;28;20161;-74
2022/02/13 03:39:06;;;;;;;24.63;11.30;;;;;;;1.28;95.08;101506.94;5014667;28;20071;-74
2022/02/13 03:41:34;;;;;;;19.80;9.65;;;;;;;1.35;94.72;101510.56;5016174;28;20109;-74
2022/02/13 03:44:03;;;;;;;21.15;9.73;;;;;;;1.31;94.73;101508.72;5016937;28;20064;-73
2022/02/13 03:46:30;;;;;;;22.17;9.75;;;;;;;1.33;94.31;101501.75;5015528;28;20148;-74
2022/02/13 03:48:58;;;;;;;18.98;9.88;;;;;;;1.24;95.00;101505.13;5014409;28;20049;-74
2022/02/13 03:51:28;;;;;;;17.70;9.75;;;;;;;1.31;94.48;101498.19;5014820;28;20053;-74
2022/02/13 03:53:55;;;;;;;18.23;9.65;;;;;;;1.27;94.28;101489.38;5015876;28;20510;-74
2022/02/13 03:56:23;;;;;;;21.73;8.18;;;;;;;1.30;94.20;101493.81;5017389;28;20104;-74
2022/02/13 03:58:51;;;;;;;22.00;9.88;;;;;;;1.27;94.59;101502.53;5018394;28;22810;-74
2022/02/13 04:01:19;;;;;;;26.70;9.80;;;;;;;1.31;94.59;101500.81;5014623;28;20145;-72
2022/02/13 04:03:47;;;;;;;17.85;9.60;;;;;;;1.24;94.35;101494.59;5014903;28;20120;-72
2022/02/13 04:06:14;;;;;;;24.27;10.40;;;;;;;1.23;94.60;101507.72;5016619;28;20068;-72
2022/02/13 04:08:44;;;;;;;24.40;9.60;;;;;;;1.23;95.33;101507.72;5017379;28;20136;-73
2022/02/13 04:11:12;;;;;;;21.98;10.32;;;;;;;1.13;95.72;101509.31;5012206;28;20057;-72
2022/02/13 04:13:40;;;;;;;20.10;9.93;;;;;;;1.15;95.93;101499.69;5015904;28;20049;-72
2022/02/13 04:16:09;;;;;;;22.52;9.68;;;;;;;1.15;95.63;101496.19;5014025;28;20292;-74
2022/02/13 04:18:37;;;;;;;24.67;9.60;;;;;;;1.14;95.78;101502.28;5017909;28;20061;-73
2022/02/13 04:21:05;;;;;;;25.23;10.27;;;;;;;1.13;96.36;101496.16;5019600;28;20284;-74
2022/02/13 04:23:33;;;;;;;22.45;10.48;;;;;;;1.14;96.19;101502.28;5017526;28;20062;-73
2022/02/13 04:26:03;;;;;;;26.40;11.25;;;;;;;1.13;95.89;101508.44;5015666;28;20455;-73
2022/02/13 04:28:30;;;;;;;23.63;9.70;;;;;;;1.19;95.77;101501.53;5018002;28;20056;-73
2022/02/13 04:30:58;;;;;;;24.35;10.82;;;;;;;1.17;96.09;101497.09;5016327;28;20049;-74
2022/02/13 04:33:26;;;;;;;23.48;11.02;;;;;;;1.19;95.77;101503.25;5016236;28;20045;-74
2022/02/13 04:35:54;;;;;;;20.35;10.82;;;;;;;1.17;95.91;101497.09;5017229;28;20045;-73
2022/02/13 04:38:23;;;;;;;25.60;10.77;;;;;;;1.20;95.76;101499.78;5016698;28;20143;-73
2022/02/13 04:40:50;;;;;;;22.77;10.75;;;;;;;1.18;96.25;101491.00;5013671;28;20154;-73
2022/02/13 04:43:20;;;;;;;18.60;10.10;;;;;;;1.14;96.13;101497.03;5016625;28;20095;-73
2022/02/13 04:45:48;;;;;;;23.42;10.73;;;;;;;1.18;96.36;101498.88;5015716;28;20520;-74
2022/02/13 04:48:16;;;;;;;22.05;9.52;;;;;;;1.22;95.86;101496.31;5015133;28;20102;-73
2022/02/13 04:50:44;;;;;;;19.75;10.32;;;;;;;1.19;96.07;101496.28;5015979;28;20045;-73
2022/02/13 04:53:14;;;;;;;25.80;10.00;;;;;;;1.26;95.65;101494.59;5016469;28;20060;-73
2022/02/13 04:55:42;;;;;;;22.42;10.35;;;;;;;1.27;95.98;101486.75;5015975;28;20119;-73
2022/02/13 04:58:10;;;;;;;21.92;9.70;;;;;;;1.24;96.00;101485.81;5015702;28;20077;-72
2022/02/13 05:00:41;;;;;;;21.88;10.50;;;;;;;1.24;95.96;101496.31;5016469;28;20045;-72
2022/02/13 05:03:09;;;;;;;21.42;10.48;;;;;;;1.23;96.52;101478.81;5016382;28;20044;-72
2022/02/13 05:05:38;;;;;;;20.33;9.38;;;;;;;1.24;96.96;101459.53;5017285;28;20042;-73
2022/02/13 05:08:07;;;;;;;26.92;12.43;;;;;;;1.27;96.61;101465.72;5015935;28;20589;-72
2022/02/13 05:10:34;;;;;;;18.42;9.30;;;;;;;1.24;96.57;101467.41;5017152;28;20053;-72
2022/02/13 05:13:02;;;;;;;20.63;9.98;;;;;;;1.30;96.45;101455.25;5015238;28;20506;-72
2022/02/13 05:15:30;;;;;;;19.92;10.18;;;;;;;1.41;95.35;101454.53;5014002;28;20246;-72
2022/02/13 05:17:59;;;;;;;20.88;9.80;;;;;;;1.46;95.44;101444.97;5013674;28;20055;-73
2022/02/13 05:20:28;;;;;;;21.48;10.63;;;;;;;1.45;95.30;101443.22;5016348;28;20141;-72
2022/02/13 05:22:57;;;;;;;22.70;10.68;;;;;;;1.54;95.22;101439.84;5017190;28;21167;-73
2022/02/13 05:25:25;;;;;;;18.13;9.45;;;;;;;1.58;94.56;101434.63;5015839;28;20059;-71
2022/02/13 05:27:53;;;;;;;21.75;10.38;;;;;;;1.60;94.18;101434.63;5015723;28;20312;-71
2022/02/13 05:30:21;;;;;;;20.25;8.75;;;;;;;1.66;94.11;101430.34;5016240;28;20478;-72
2022/02/13 05:32:49;;;;;;;27.10;10.75;;;;;;;1.63;94.09;101427.66;5016612;28;20053;-72
2022/02/13 05:35:19;;;;;;;21.77;10.48;;;;;;;1.67;93.88;101421.59;5015166;28;20084;-72
2022/02/13 05:37:48;;;;;;;22.48;9.70;;;;;;;1.74;93.49;101414.69;5013833;28;20049;-72
2022/02/13 05:40:16;;;;;;;24.95;10.82;;;;;;;1.73;93.70;101401.50;5015149;28;20465;-72
2022/02/13 05:42:46;;;;;;;20.27;9.95;;;;;;;1.80;92.82;101401.59;5017010;28;20167;-73
2022/02/13 05:45:14;;;;;;;18.35;8.93;;;;;;;1.80;92.96;101398.09;5014010;28;20575;-73
2022/02/13 05:47:46;;;;;;;23.60;11.07;;;;;;;1.78;93.07;101402.44;5014998;28;20080;-72
2022/02/13 05:50:14;;;;;;;24.35;11.55;;;;;;;1.80;92.74;101398.09;5013485;28;20136;-72
2022/02/13 05:52:45;;;;;;;20.52;10.18;;;;;;;1.78;93.21;101391.91;5016534;28;20053;-72
2022/02/13 05:55:14;;;;;;;20.02;8.75;;;;;;;1.83;92.49;101391.09;5015710;28;20140;-72
2022/02/13 05:57:43;;;;;;;16.80;9.00;;;;;;;1.86;92.38;101385.88;5016198;28;20050;-72
2022/02/13 06:00:14;;;;;;;17.98;9.63;;;;;;;1.87;92.29;101384.13;5014705;28;20054;-74
2022/02/13 06:02:44;;;;;;;22.40;9.18;;;;;;;1.86;92.03;101374.47;5015010;28;20057;-74
2022/02/13 06:05:14;;;;;;;17.08;9.15;;;;;;;1.84;92.04;101363.94;5017578;28;20506;-74
2022/02/13 06:07:43;;;;;;;21.90;11.75;;;;;;;1.86;92.42;101367.47;5015106;28;20065;-75
2022/02/13 06:10:14;;;;;;;18.92;9.63;;;;;;;1.87;92.64;101368.34;5015763;28;20049;-76
2022/02/13 06:12:42;;;;;;;22.80;11.50;;;;;;;1.90;92.33;101376.28;5014970;28;20081;-76
2022/02/13 06:15:11;;;;;;;25.80;10.57;;;;;;;1.91;92.55;101366.63;5013714;28;20050;-76
2022/02/13 06:17:38;;;;;;;21.08;9.35;;;;;;;1.96;92.16;101368.47;5016294;28;20053;-76
2022/02/13 06:20:08;;;;;;;20.40;10.40;;;;;;;1.93;92.06;101364.91;5017221;28;20898;-76
2022/02/13 06:22:36;;;;;;;20.42;10.23;;;;;;;1.96;92.03;101362.28;5018192;28;20060;-76
2022/02/13 06:25:04;;;;;;;20.75;10.18;;;;;;;1.96;92.02;101352.66;5017857;28;20060;-76
2022/02/13 06:27:33;;;;;;;23.35;11.15;;;;;;;1.97;91.53;101353.53;5013616;28;20053;-75
2022/02/13 06:30:01;;;;;;;20.55;9.52;;;;;;;1.99;91.29;101357.97;5014936;28;20104;-75
2022/02/13 06:32:29;;;;;;;24.00;10.65;;;;;;;1.98;91.40;101356.19;5011807;28;20056;-74
2022/02/13 06:35:00;;;;;;;20.38;10.25;;;;;;;1.97;91.44;101349.16;5015746;28;20530;-74
2022/02/13 06:37:29;;;;;;;19.52;8.38;;;;;;;1.99;91.70;101355.34;5016017;28;20132;-74
2022/02/13 06:39:57;;;;;;;21.73;10.57;;;;;;;2.02;92.26;101350.09;5017912;28;20103;-74
2022/02/13 06:42:25;;;;;;;19.30;9.95;;;;;;;2.01;92.06;101340.44;5018470;28;20077;-74
2022/02/13 06:44:54;;;;;;;21.63;10.88;;;;;;;2.02;92.16;101341.31;5019793;28;20059;-74
2022/02/13 06:47:22;;;;;;;20.27;9.63;;;;;;;2.05;91.87;101346.63;5017535;28;20046;-74
2022/02/13 06:49:50;;;;;;;22.02;11.68;;;;;;;2.01;92.22;101343.06;5016984;28;20196;-75
2022/02/13 06:52:18;;;;;;;22.40;10.70;;;;;;;2.09;92.33;101335.25;5018347;28;20046;-75
2022/02/13 06:54:45;;;;;;;23.90;10.30;;;;;;;2.05;92.18;101339.59;5021216;28;20050;-74
2022/02/13 06:57:13;;;;;;;24.27;10.15;;;;;;;2.10;92.38;101341.41;5017889;28;20120;-75
2022/02/13 06:59:41;;;;;;;23.80;10.65;;;;;;;2.10;92.56;101342.28;5019854;28;20207;-75
2022/02/13 07:02:10;;;;;;;29.25;10.77;;;;;;;2.10;92.66;101341.41;5017953;28;20132;-75
2022/02/13 07:04:38;;;;;;;21.13;10.50;;;;;;;2.14;92.28;101349.34;5016678;28;20472;-75
2022/02/13 07:07:08;;;;;;;21.25;11.25;;;;;;;2.19;91.89;101338.88;5017843;28;20148;-75
2022/02/13 07:09:36;;;;;;;25.90;10.88;;;;;;;2.17;92.18;101341.47;5019847;28;20152;-75
2022/02/13 07:12:09;;;;;;;23.38;10.48;;;;;;;2.21;92.00;101337.13;5017362;28;20060;-75
2022/02/13 07:14:37;;;;;;;20.80;9.88;;;;;;;2.21;91.92;101326.59;5018883;28;20096;-75
2022/02/13 07:17:06;;;;;;;21.63;10.82;;;;;;;2.20;91.92;101349.41;5019573;28;20053;-75
2022/02/13 07:19:37;;;;;;;23.20;10.57;;;;;;;2.27;91.55;101342.47;5020305;28;20073;-75
2022/02/13 07:22:06;;;;;;;20.70;9.85;;;;;;;2.27;91.73;101339.84;5020456;28;20047;-75
2022/02/13 07:24:37;;;;;;;19.58;10.02;;;;;;;2.27;91.55;101339.84;5018820;28;20470;-76
2022/02/13 07:27:07;;;;;;;18.73;9.98;;;;;;;2.28;91.75;101344.22;5019042;28;20053;-76
2022/02/13 07:29:35;;;;;;;21.35;10.23;;;;;;;2.28;91.55;101344.22;5018930;28;20052;-76
2022/02/13 07:32:05;;;;;;;20.17;9.80;;;;;;;2.33;91.33;101336.38;5016889;28;20049;-74
2022/02/13 07:34:32;;;;;;;20.05;10.73;;;;;;;2.30;91.62;101329.34;5020530;28;20870;-74
2022/02/13 07:37:02;;;;;;;22.15;10.95;;;;;;;2.34;91.71;101327.59;5016533;28;20493;-75
2022/02/13 07:39:31;;;;;;;19.00;9.68;;;;;;;2.33;91.78;101321.44;5016487;28;20056;-74
2022/02/13 07:42:00;;;;;;;24.45;10.82;;;;;;;2.32;92.05;101327.59;5015992;28;20055;-75
2022/02/13 07:44:29;;;;;;;22.05;9.65;;;;;;;2.38;91.94;101329.41;5017090;28;20049;-75
2022/02/13 07:46:59;;;;;;;16.08;8.95;;;;;;;2.47;91.19;101323.31;5018202;28;20513;-74
2022/02/13 07:49:27;;;;;;;22.60;9.73;;;;;;;2.47;91.53;101321.59;5016765;28;20541;-74
2022/02/13 07:51:55;;;;;;;21.02;10.63;;;;;;;2.50;91.47;101324.22;5016745;28;20060;-74
2022/02/13 07:54:25;;;;;;;21.77;10.77;;;;;;;2.51;91.00;101315.47;5021882;28;20096;-75
2022/02/13 07:56:52;;;;;;;20.38;10.43;;;;;;;2.54;91.12;101312.88;5015926;28;20049;-74
2022/02/13 07:59:20;;;;;;;23.52;10.35;;;;;;;2.54;91.57;101315.50;5018601;28;20451;-75
2022/02/13 08:01:49;;;;;;;19.08;9.52;;;;;;;2.60;90.87;101312.91;5016640;28;20053;-75
2022/02/13 08:04:16;;;;;;;20.17;9.73;;;;;;;2.64;90.10;101302.38;5017013;28;20068;-74
2022/02/13 08:06:44;;;;;;;21.33;9.80;;;;;;;2.68;90.15;101309.47;5016016;28;20088;-75
2022/02/13 08:09:15;;;;;;;21.70;10.85;;;;;;;2.66;89.97;101300.66;5018333;28;20526;-74
2022/02/13 08:11:44;;;;;;;18.45;9.40;;;;;;;2.70;89.82;101294.53;5021642;28;20246;-74
2022/02/13 08:14:14;;;;;;;19.67;11.27;;;;;;;2.70;90.80;101295.41;5015891;28;20129;-74
2022/02/13 08:16:42;;;;;;;28.55;9.95;;;;;;;2.71;90.41;101294.56;5019832;28;20494;-75
2022/02/13 08:19:10;;;;;;;19.80;9.30;;;;;;;2.74;90.45;101294.59;5017825;28;20332;-75
2022/02/13 08:21:38;;;;;;;19.80;10.52;;;;;;;2.71;90.08;101278.75;5015267;28;20057;-75
2022/02/13 08:24:06;;;;;;;14.60;9.20;;;;;;;2.79;89.97;101270.88;5017747;28;20049;-74
2022/02/13 08:26:34;;;;;;;22.42;10.05;;;;;;;2.84;89.96;101268.28;5017074;28;20345;-74
2022/02/13 08:29:03;;;;;;;17.55;9.27;;;;;;;2.84;89.41;101278.81;5012452;28;21236;-76
2022/02/13 08:31:31;;;;;;;21.42;10.18;;;;;;;2.86;89.04;101269.16;5015931;28;20057;-76
2022/02/13 08:33:59;;;;;;;23.40;10.23;;;;;;;2.89;89.36;101267.44;5015384;28;20045;-75
2022/02/13 08:36:26;;;;;;;18.73;9.35;;;;;;;2.84;89.14;101263.88;5012637;28;20065;-74
2022/02/13 08:38:55;;;;;;;23.73;10.77;;;;;;;2.90;89.54;101261.28;5015909;28;20054;-76
2022/02/13 08:41:23;;;;;;;21.05;8.70;;;;;;;2.95;88.85;101264.84;5014545;28;20045;-76
2022/02/13 08:43:50;;;;;;;16.38;9.80;;;;;;;2.98;88.34;101256.09;5018463;28;20057;-76
2022/02/13 08:46:22;;;;;;;26.42;10.93;;;;;;;3.01;88.13;101244.66;5011323;28;20682;-76
2022/02/13 08:48:50;;;;;;;21.73;9.73;;;;;;;3.00;88.46;101243.78;5015880;28;20080;-76
2022/02/13 08:51:20;;;;;;;21.98;8.32;;;;;;;3.12;88.22;101249.13;5015699;28;20145;-76
2022/02/13 08:53:48;;;;;;;20.00;9.65;;;;;;;3.13;88.08;101245.63;5016528;28;20056;-76
2022/02/13 08:56:17;;;;;;;19.08;8.77;;;;;;;3.14;87.90;101246.50;5016485;28;20052;-76
2022/02/13 08:58:45;;;;;;;23.42;10.65;;;;;;;3.16;87.80;101228.91;5015204;28;20049;-77
2022/02/13 09:01:13;;;;;;;19.88;9.32;;;;;;;3.23;88.07;101240.38;5016126;28;20148;-76
2022/02/13 09:03:42;;;;;;;23.00;10.52;;;;;;;3.26;87.42;101227.22;5017364;28;20127;-75
2022/02/13 09:06:10;;;;;;;21.40;10.88;;;;;;;3.25;87.63;101225.44;5012304;28;20517;-75
2022/02/13 09:08:38;;;;;;;19.17;9.32;;;;;;;3.38;87.74;101232.53;5014343;28;20299;-75
2022/02/13 09:11:06;;;;;;;19.48;9.23;;;;;;;3.34;87.40;101242.19;5016177;28;20068;-76
2022/02/13 09:13:34;;;;;;;23.50;10.07;;;;;;;3.37;87.01;101233.38;5013908;28;20166;-75
2022/02/13 09:16:02;;;;;;;19.00;8.85;;;;;;;3.44;87.02;101229.00;5017089;28;20081;-75
2022/02/13 09:18:29;;;;;;;19.38;9.18;;;;;;;3.44;86.70;101215.81;5015824;28;20081;-76
2022/02/13 09:21:00;;;;;;;20.90;10.40;;;;;;;3.53;87.13;101210.59;5014392;28;20543;-75
2022/02/13 09:23:28;;;;;;;23.42;10.18;;;;;;;3.53;86.37;101195.63;5015516;28;20049;-75
2022/02/13 09:25:57;;;;;;;20.45;9.57;;;;;;;3.63;86.23;101208.88;5015294;28;20049;-75
2022/02/13 09:28:25;;;;;;;23.88;10.25;;;;;;;3.66;86.24;101201.84;5017615;28;20541;-75
2022/02/13 09:30:53;;;;;;;23.73;10.45;;;;;;;3.62;86.71;101184.22;5017034;28;20057;-75
2022/02/13 09:33:25;;;;;;;21.55;9.30;;;;;;;3.72;86.53;101193.03;5011662;28;20045;-73
2022/02/13 09:35:53;;;;;;;21.20;9.77;;;;;;;3.84;86.15;101195.69;5014855;28;20060;-73
2022/02/13 09:38:23;;;;;;;18.25;9.52;;;;;;;3.82;85.91;101181.63;5014732;28;20489;-74
2022/02/13 09:40:51;;;;;;;23.33;11.30;;;;;;;3.79;85.78;101192.16;5016457;28;20059;-74
2022/02/13 09:43:21;;;;;;;23.65;9.45;;;;;;;3.84;86.17;101186.91;5015014;28;20057;-74
2022/02/13 09:45:52;;;;;;;18.85;8.45;;;;;;;4.03;85.58;101199.22;5014600;28;20580;-75
2022/02/13 09:48:22;;;;;;;21.27;10.43;;;;;;;3.83;85.80;101191.31;5015292;28;20561;-74
2022/02/13 09:50:50;;;;;;;15.85;9.73;;;;;;;3.72;86.29;101183.34;5017242;28;20263;-77
2022/02/13 09:53:27;;;;;;;20.25;9.63;;;;;;;3.87;86.40;101185.13;5013020;28;20383;-76
2022/02/13 09:55:59;;;;;;;23.13;10.65;;;;;;;4.01;85.98;101171.06;5015240;28;20053;-74
2022/02/13 09:58:27;;;;;;;21.45;10.30;;;;;;;4.22;85.47;101176.34;5015966;28;20486;-74
2022/02/13 10:00:56;;;;;;;19.83;9.90;;;;;;;4.09;85.53;101167.53;5013969;28;20068;-75
2022/02/13 10:03:26;;;;;;;22.27;10.10;;;;;;;4.10;85.35;101173.69;5016883;28;20127;-75
2022/02/13 10:05:55;;;;;;;17.15;8.70;;;;;;;4.23;85.54;101171.94;5012206;28;20537;-75
2022/02/13 10:08:40;;;;;;;22.58;8.93;;;;;;;4.36;84.94;101170.16;5014720;28;20067;-74
2022/02/13 10:11:10;;;;;;;19.73;9.90;;;;;;;4.41;85.10;101168.38;5014825;28;20144;-76
2022/02/13 10:13:43;;;;;;;17.95;9.13;;;;;;;4.61;84.84;101163.06;5012219;28;20510;-74
2022/02/13 10:16:16;;;;;;;19.48;9.68;;;;;;;4.64;84.56;101155.16;5018419;28;20064;-74
2022/02/13 10:19:06;;;;;;;17.37;9.23;;;;;;;4.70;84.81;101163.06;5020718;28;20484;-74
2022/02/13 10:21:42;;;;;;;16.60;8.13;;;;;;;4.75;84.08;101161.28;5015716;28;20443;-74
2022/02/13 10:24:26;;;;;;;20.08;9.35;;;;;;;4.81;83.87;101155.97;5017320;28;20053;-73
2022/02/13 10:27:08;;;;;;;19.33;8.95;;;;;;;4.76;83.89;101144.53;5015529;28;20229;-74
2022/02/13 10:29:38;;;;;;;17.73;7.78;;;;;;;4.82;83.26;101159.50;5015455;28;20120;-75
2022/02/13 10:32:15;;;;;;;16.13;8.57;;;;;;;4.90;83.46;101140.97;5023426;28;20042;-76
2022/02/13 10:35:00;;;;;;;19.30;8.43;;;;;;;4.90;82.44;101144.47;5017493;28;20112;-73
2022/02/13 10:37:37;;;;;;;14.82;7.75;;;;;;;4.71;82.50;101138.38;5018522;28;20057;-73
2022/02/13 10:40:08;;;;;;;15.52;7.78;;;;;;;4.63;82.07;101124.28;5017925;28;20139;-74
2022/02/13 10:42:36;;;;;;;16.70;8.75;;;;;;;4.59;82.83;101117.28;5017473;28;20054;-74
2022/02/13 10:45:24;;;;;;;22.33;9.48;;;;;;;4.64;82.49;101118.13;5016458;28;20061;-74
2022/02/13 10:47:54;;;;;;;14.23;7.60;;;;;;;4.79;81.74;101122.50;5019266;28;20080;-75
2022/02/13 10:50:22;;;;;;;15.80;8.75;;;;;;;4.92;81.59;101108.34;5017739;28;20517;-76
2022/02/13 10:52:53;;;;;;;18.02;9.30;;;;;;;4.91;81.51;101097.78;5018841;28;20123;-76
2022/02/13 10:55:25;;;;;;;14.35;7.93;;;;;;;5.18;80.22;101109.97;5024129;28;20080;-76
2022/02/13 10:57:55;;;;;;;16.50;7.90;;;;;;;5.27;79.64;101116.97;5019384;28;20053;-76
2022/02/13 11:00:26;;;;;;;21.13;8.73;;;;;;;5.32;78.90;101107.25;5021233;28;20240;-77
2022/02/13 11:02:55;;;;;;;18.58;8.50;;;;;;;5.56;77.62;101095.63;5017318;28;20231;-77
2022/02/13 11:05:26;;;;;;;16.23;8.30;;;;;;;5.77;76.92;101091.91;5020464;28;20050;-77
2022/02/13 11:08:06;;;;;;;17.33;8.50;;;;;;;5.84;76.38;101079.50;5021533;28;20049;-76
2022/02/13 11:10:40;;;;;;;19.55;9.23;;;;;;;5.59;76.44;101070.00;5018993;28;20045;-76
2022/02/13 11:13:10;;;;;;;13.27;7.35;;;;;;;5.79;76.35;101063.66;5019566;28;20510;-76
2022/02/13 11:15:42;;;;;;;15.07;7.65;;;;;;;5.98;75.38;101061.75;5018594;28;20064;-76
2022/02/13 11:18:18;;;;;;;11.93;6.30;;;;;;;5.93;74.29;101060.91;5018297;28;20085;-74
2022/02/13 11:20:46;;;;;;;19.63;8.25;;;;;;;6.14;73.89;101057.19;5017769;28;20276;-75
2022/02/13 11:23:21;;;;;;;15.93;8.02;;;;;;;6.27;73.80;101045.56;5015060;28;20050;-74
2022/02/13 11:25:52;;;;;;;13.52;7.22;;;;;;;6.05;73.51;101044.91;5018740;28;20083;-74
2022/02/13 11:28:24;;;;;;;16.25;8.07;;;;;;;6.11;73.24;101054.56;5017365;28;20049;-75
2022/02/13 11:30:53;;;;;;;13.80;7.22;;;;;;;6.33;73.14;101048.16;5015787;28;20057;-75